Airfield :







YOU CAN JOIN US ON...

 
LOGIN :

Register | Disclaimer

   EN    FR    IT 

 









Legend :    VFR   Marginal VFR   IFR   Intensive IFR   Very Intensive IFR
Visi :
Ceiling :
>= 8 km
>= 3000ft
5 to 8 km
1000 to 3000 ft
1500m to 5 km
500 to 1000 ft
800 to 1500m
200 to 500 ft
< 800m
< 200 ft
Symbols :   Thunderstorms  Fog  Heavy snow  Heavy precipitations  Wind > 20 kt






- Airport Elevation : 586 ft
- IATA code : YRJ


CYRJ - Roberval

CURRENT METAR :
  • 241900Z 30012G20KT 40SM BKN043 M11/M16 A2994 RMK SC7 SLP157

EXPIRED METARs :
  • 241800Z 31015G21KT 40SM DRSN BKN044 M12/M17 A2994 RMK SC7 SLP156
  • 241700Z 31015G23KT 40SM DRSN BKN043 M13/M18 A2994 RMK SC7 SLP157

TAF TAF CYRJ
Valid from the 24 at 13:00 until the 25 at 01:00 UTC


241238Z 2413/2501 30018G28KT P6SM FEW040 BKN080
TEMPO 2413/2424 5SM -SN FEW020 OVC040
BECMG 2418/2420 30015G25KT
FM250000 30015KT P6SM -SN BKN030 OVC070 RMK NXT FCST BY 242000Z
CZUL FIR / North America



MET'MAP, your aeronautical weather chart ! - Copyright ORBIFLY December 2007 - Disclaimer

ORBIFLY MET'MAP TEAM :

Programming & Development : Alexandra Zaïnal
Concept & original design : Baudouin d'Aumeries
Assistance for programming : Marc-Olivier Méhu
Technical & hardware support : Manuel Goepfert

Contact : metmap@orbifly.com




SOURCES & CREDITS :

   NOAA